sensor_id;sensor_type;location;lat;lon;timestamp;temperature;humidity
8892;DHT22;4482;54.332;10.118;2023-02-01T00:00:00;4.00;99.90
8892;DHT22;4482;54.332;10.118;2023-02-01T00:02:27;4.10;99.90
8892;DHT22;4482;54.332;10.118;2023-02-01T00:04:54;4.10;99.90
8892;DHT22;4482;54.332;10.118;2023-02-01T00:07:21;4.10;99.90
8892;DHT22;4482;54.332;10.118;2023-02-01T00:09:48;4.20;99.90
8892;DHT22;4482;54.332;10.118;2023-02-01T00:12:16;4.10;99.90
8892;DHT22;4482;54.332;10.118;2023-02-01T00:14:43;4.20;99.90
8892;DHT22;4482;54.332;10.118;2023-02-01T00:17:09;4.20;99.90
8892;DHT22;4482;54.332;10.118;2023-02-01T00:19:36;4.20;99.90
8892;DHT22;4482;54.332;10.118;2023-02-01T00:22:03;4.30;99.90
8892;DHT22;4482;54.332;10.118;2023-02-01T00:24:30;4.30;99.90
8892;DHT22;4482;54.332;10.118;2023-02-01T00:26:57;4.30;99.90
8892;DHT22;4482;54.332;10.118;2023-02-01T00:29:25;4.40;99.90
8892;DHT22;4482;54.332;10.118;2023-02-01T00:31:52;4.40;99.90
8892;DHT22;4482;54.332;10.118;2023-02-01T00:34:19;4.40;99.90
8892;DHT22;4482;54.332;10.118;2023-02-01T00:36:47;4.50;99.90
8892;DHT22;4482;54.332;10.118;2023-02-01T00:39:14;4.50;99.90
8892;DHT22;4482;54.332;10.118;2023-02-01T00:41:41;4.50;99.90
8892;DHT22;4482;54.332;10.118;2023-02-01T00:44:07;4.60;99.90
8892;DHT22;4482;54.332;10.118;2023-02-01T00:46:36;4.60;99.90
8892;DHT22;4482;54.332;10.118;2023-02-01T00:49:03;4.60;99.90
8892;DHT22;4482;54.332;10.118;2023-02-01T00:51:31;4.70;99.90
8892;DHT22;4482;54.332;10.118;2023-02-01T00:53:57;4.80;99.90
8892;DHT22;4482;54.332;10.118;2023-02-01T00:56:24;4.90;99.90
8892;DHT22;4482;54.332;10.118;2023-02-01T00:58:53;4.80;99.90
8892;DHT22;4482;54.332;10.118;2023-02-01T01:01:21;4.90;99.90
8892;DHT22;4482;54.332;10.118;2023-02-01T01:03:51;4.90;99.90
8892;DHT22;4482;54.332;10.118;2023-02-01T01:06:21;4.90;99.90
8892;DHT22;4482;54.332;10.118;2023-02-01T01:08:50;4.90;99.90
8892;DHT22;4482;54.332;10.118;2023-02-01T01:11:19;5.00;99.90
8892;DHT22;4482;54.332;10.118;2023-02-01T01:13:47;5.00;99.90
8892;DHT22;4482;54.332;10.118;2023-02-01T01:16:14;5.00;99.90
8892;DHT22;4482;54.332;10.118;2023-02-01T01:18:41;5.10;99.90
8892;DHT22;4482;54.332;10.118;2023-02-01T01:21:13;5.10;99.90
8892;DHT22;4482;54.332;10.118;2023-02-01T01:23:40;5.10;99.90
8892;DHT22;4482;54.332;10.118;2023-02-01T01:26:07;5.10;99.90
8892;DHT22;4482;54.332;10.118;2023-02-01T01:28:34;5.20;99.90
8892;DHT22;4482;54.332;10.118;2023-02-01T01:31:01;5.10;99.90
8892;DHT22;4482;54.332;10.118;2023-02-01T01:33:28;5.10;99.90
8892;DHT22;4482;54.332;10.118;2023-02-01T01:35:55;5.20;99.90
8892;DHT22;4482;54.332;10.118;2023-02-01T01:38:23;5.20;99.90
8892;DHT22;4482;54.332;10.118;2023-02-01T01:40:50;5.20;99.90
8892;DHT22;4482;54.332;10.118;2023-02-01T01:43:20;5.20;99.90
8892;DHT22;4482;54.332;10.118;2023-02-01T01:45:48;5.20;99.90
8892;DHT22;4482;54.332;10.118;2023-02-01T01:48:19;5.20;99.90
8892;DHT22;4482;54.332;10.118;2023-02-01T01:50:51;5.20;99.90
8892;DHT22;4482;54.332;10.118;2023-02-01T01:53:21;5.30;99.90
8892;DHT22;4482;54.332;10.118;2023-02-01T01:55:53;5.30;99.90
8892;DHT22;4482;54.332;10.118;2023-02-01T01:58:23;5.40;99.90
8892;DHT22;4482;54.332;10.118;2023-02-01T02:00:52;5.30;99.90
8892;DHT22;4482;54.332;10.118;2023-02-01T02:03:22;5.40;99.90
8892;DHT22;4482;54.332;10.118;2023-02-01T02:05:50;5.40;99.90
8892;DHT22;4482;54.332;10.118;2023-02-01T02:08:19;5.40;99.90
8892;DHT22;4482;54.332;10.118;2023-02-01T02:10:48;5.30;99.90
8892;DHT22;4482;54.332;10.118;2023-02-01T02:13:32;5.30;99.90
8892;DHT22;4482;54.332;10.118;2023-02-01T02:16:10;5.30;99.90
8892;DHT22;4482;54.332;10.118;2023-02-01T02:18:45;5.20;99.90
8892;DHT22;4482;54.332;10.118;2023-02-01T02:21:22;5.20;99.90
8892;DHT22;4482;54.332;10.118;2023-02-01T02:27:08;5.20;99.90
8892;DHT22;4482;54.332;10.118;2023-02-01T02:36:03;5.30;99.90
8892;DHT22;4482;54.332;10.118;2023-02-01T02:38:35;5.30;99.90
8892;DHT22;4482;54.332;10.118;2023-02-01T02:41:10;5.40;99.90
8892;DHT22;4482;54.332;10.118;2023-02-01T02:44:09;5.40;99.90
8892;DHT22;4482;54.332;10.118;2023-02-01T02:46:59;5.40;99.90
8892;DHT22;4482;54.332;10.118;2023-02-01T02:49:49;5.30;99.90
8892;DHT22;4482;54.332;10.118;2023-02-01T02:52:44;5.40;99.90
8892;DHT22;4482;54.332;10.118;2023-02-01T02:55:31;5.40;99.90
8892;DHT22;4482;54.332;10.118;2023-02-01T02:58:01;5.40;99.90
8892;DHT22;4482;54.332;10.118;2023-02-01T03:00:47;5.50;99.90
8892;DHT22;4482;54.332;10.118;2023-02-01T03:03:31;5.40;99.90
8892;DHT22;4482;54.332;10.118;2023-02-01T03:06:19;5.50;99.90
8892;DHT22;4482;54.332;10.118;2023-02-01T03:08:47;5.50;99.90
8892;DHT22;4482;54.332;10.118;2023-02-01T03:11:19;5.50;99.90
8892;DHT22;4482;54.332;10.118;2023-02-01T03:13:49;5.50;99.90
8892;DHT22;4482;54.332;10.118;2023-02-01T03:16:20;5.50;99.90
8892;DHT22;4482;54.332;10.118;2023-02-01T03:18:54;5.50;99.90
8892;DHT22;4482;54.332;10.118;2023-02-01T03:21:29;5.50;99.90
8892;DHT22;4482;54.332;10.118;2023-02-01T03:24:04;5.50;99.90
8892;DHT22;4482;54.332;10.118;2023-02-01T03:26:37;5.50;99.90
8892;DHT22;4482;54.332;10.118;2023-02-01T03:29:11;5.50;99.90
8892;DHT22;4482;54.332;10.118;2023-02-01T03:31:39;5.40;99.90
8892;DHT22;4482;54.332;10.118;2023-02-01T03:34:06;5.40;99.90
8892;DHT22;4482;54.332;10.118;2023-02-01T03:36:37;5.40;99.90
8892;DHT22;4482;54.332;10.118;2023-02-01T03:39:11;5.50;99.90
8892;DHT22;4482;54.332;10.118;2023-02-01T03:41:43;5.50;99.90
8892;DHT22;4482;54.332;10.118;2023-02-01T03:44:15;5.50;99.90
8892;DHT22;4482;54.332;10.118;2023-02-01T03:46:45;5.50;99.90
8892;DHT22;4482;54.332;10.118;2023-02-01T03:49:19;5.60;99.90
8892;DHT22;4482;54.332;10.118;2023-02-01T03:51:49;5.40;99.90
8892;DHT22;4482;54.332;10.118;2023-02-01T03:54:19;5.30;99.90
8892;DHT22;4482;54.332;10.118;2023-02-01T03:56:47;5.30;99.90
8892;DHT22;4482;54.332;10.118;2023-02-01T03:59:15;5.20;99.90
8892;DHT22;4482;54.332;10.118;2023-02-01T04:01:42;5.10;99.90
8892;DHT22;4482;54.332;10.118;2023-02-01T04:04:09;5.00;99.90
8892;DHT22;4482;54.332;10.118;2023-02-01T04:06:36;4.80;99.90
8892;DHT22;4482;54.332;10.118;2023-02-01T04:09:03;4.80;99.90
8892;DHT22;4482;54.332;10.118;2023-02-01T04:11:31;4.70;99.90
8892;DHT22;4482;54.332;10.118;2023-02-01T04:13:58;4.60;99.90
8892;DHT22;4482;54.332;10.118;2023-02-01T04:16:29;4.60;99.90
8892;DHT22;4482;54.332;10.118;2023-02-01T04:18:56;4.50;99.90
8892;DHT22;4482;54.332;10.118;2023-02-01T04:21:24;4.50;99.90
8892;DHT22;4482;54.332;10.118;2023-02-01T04:23:52;4.50;99.90
8892;DHT22;4482;54.332;10.118;2023-02-01T04:26:19;4.40;99.90
8892;DHT22;4482;54.332;10.118;2023-02-01T04:28:47;4.40;99.90
8892;DHT22;4482;54.332;10.118;2023-02-01T04:31:14;4.40;99.90
8892;DHT22;4482;54.332;10.118;2023-02-01T04:33:41;4.30;99.90
8892;DHT22;4482;54.332;10.118;2023-02-01T04:36:09;4.30;99.90
8892;DHT22;4482;54.332;10.118;2023-02-01T04:38:35;4.30;99.90
8892;DHT22;4482;54.332;10.118;2023-02-01T04:41:02;4.30;99.90
8892;DHT22;4482;54.332;10.118;2023-02-01T04:43:32;4.30;99.90
8892;DHT22;4482;54.332;10.118;2023-02-01T04:46:00;4.30;99.90
8892;DHT22;4482;54.332;10.118;2023-02-01T04:48:27;4.20;99.90
8892;DHT22;4482;54.332;10.118;2023-02-01T04:50:56;4.20;99.90
8892;DHT22;4482;54.332;10.118;2023-02-01T04:53:23;4.20;99.90
8892;DHT22;4482;54.332;10.118;2023-02-01T04:55:50;4.20;99.90
8892;DHT22;4482;54.332;10.118;2023-02-01T04:58:17;4.20;99.90
8892;DHT22;4482;54.332;10.118;2023-02-01T05:00:44;4.20;99.90
8892;DHT22;4482;54.332;10.118;2023-02-01T05:03:14;4.20;99.90
8892;DHT22;4482;54.332;10.118;2023-02-01T05:05:41;4.10;99.90
8892;DHT22;4482;54.332;10.118;2023-02-01T05:08:09;4.20;99.90
8892;DHT22;4482;54.332;10.118;2023-02-01T05:10:36;4.20;99.90
8892;DHT22;4482;54.332;10.118;2023-02-01T05:13:05;4.10;99.90
8892;DHT22;4482;54.332;10.118;2023-02-01T05:15:50;4.20;99.90
8892;DHT22;4482;54.332;10.118;2023-02-01T05:18:19;4.10;99.90
8892;DHT22;4482;54.332;10.118;2023-02-01T05:20:50;4.20;99.90
8892;DHT22;4482;54.332;10.118;2023-02-01T05:23:19;4.20;99.90
8892;DHT22;4482;54.332;10.118;2023-02-01T05:25:46;4.20;99.90
8892;DHT22;4482;54.332;10.118;2023-02-01T05:28:13;4.20;99.90
8892;DHT22;4482;54.332;10.118;2023-02-01T05:30:39;4.20;99.90
8892;DHT22;4482;54.332;10.118;2023-02-01T05:33:06;4.30;99.90
8892;DHT22;4482;54.332;10.118;2023-02-01T05:35:35;4.30;99.90
8892;DHT22;4482;54.332;10.118;2023-02-01T05:38:01;4.30;99.90
8892;DHT22;4482;54.332;10.118;2023-02-01T05:40:28;4.40;99.90
8892;DHT22;4482;54.332;10.118;2023-02-01T05:42:55;4.40;99.90
8892;DHT22;4482;54.332;10.118;2023-02-01T05:45:22;4.50;99.90
8892;DHT22;4482;54.332;10.118;2023-02-01T05:47:51;4.60;99.90
8892;DHT22;4482;54.332;10.118;2023-02-01T05:50:18;4.60;99.90
8892;DHT22;4482;54.332;10.118;2023-02-01T05:52:47;4.60;99.90
8892;DHT22;4482;54.332;10.118;2023-02-01T05:55:14;4.60;99.90
8892;DHT22;4482;54.332;10.118;2023-02-01T05:57:41;4.60;99.90
8892;DHT22;4482;54.332;10.118;2023-02-01T06:00:09;4.60;99.90
8892;DHT22;4482;54.332;10.118;2023-02-01T06:02:38;4.60;99.90
8892;DHT22;4482;54.332;10.118;2023-02-01T06:05:07;4.60;99.90
8892;DHT22;4482;54.332;10.118;2023-02-01T06:07:33;4.50;99.90
8892;DHT22;4482;54.332;10.118;2023-02-01T06:10:02;4.50;99.90
8892;DHT22;4482;54.332;10.118;2023-02-01T06:12:32;4.50;99.90
8892;DHT22;4482;54.332;10.118;2023-02-01T06:14:58;4.50;99.90
8892;DHT22;4482;54.332;10.118;2023-02-01T06:17:25;4.50;99.90
8892;DHT22;4482;54.332;10.118;2023-02-01T06:19:54;4.50;99.90
8892;DHT22;4482;54.332;10.118;2023-02-01T06:22:21;4.50;99.90
8892;DHT22;4482;54.332;10.118;2023-02-01T06:24:48;4.50;99.90
8892;DHT22;4482;54.332;10.118;2023-02-01T06:27:16;4.50;99.90
8892;DHT22;4482;54.332;10.118;2023-02-01T06:29:43;4.50;99.90
8892;DHT22;4482;54.332;10.118;2023-02-01T06:32:13;4.60;99.90
8892;DHT22;4482;54.332;10.118;2023-02-01T06:34:39;4.50;99.90
8892;DHT22;4482;54.332;10.118;2023-02-01T06:37:06;4.50;99.90
8892;DHT22;4482;54.332;10.118;2023-02-01T06:39:33;4.40;99.90
8892;DHT22;4482;54.332;10.118;2023-02-01T06:42:00;4.40;99.90
8892;DHT22;4482;54.332;10.118;2023-02-01T06:44:33;4.40;99.90
8892;DHT22;4482;54.332;10.118;2023-02-01T06:47:00;4.40;99.90
8892;DHT22;4482;54.332;10.118;2023-02-01T06:49:26;4.30;99.90
8892;DHT22;4482;54.332;10.118;2023-02-01T06:51:53;4.30;99.90
8892;DHT22;4482;54.332;10.118;2023-02-01T06:54:20;4.30;99.90
8892;DHT22;4482;54.332;10.118;2023-02-01T06:56:47;4.40;99.90
8892;DHT22;4482;54.332;10.118;2023-02-01T06:59:14;4.40;99.90
8892;DHT22;4482;54.332;10.118;2023-02-01T07:01:42;4.40;99.90
8892;DHT22;4482;54.332;10.118;2023-02-01T07:04:10;4.50;99.90
8892;DHT22;4482;54.332;10.118;2023-02-01T07:06:38;4.50;99.90
8892;DHT22;4482;54.332;10.118;2023-02-01T07:09:05;4.50;99.90
8892;DHT22;4482;54.332;10.118;2023-02-01T07:11:35;4.50;99.90
8892;DHT22;4482;54.332;10.118;2023-02-01T07:14:04;4.50;99.90
8892;DHT22;4482;54.332;10.118;2023-02-01T07:16:31;4.50;99.90
8892;DHT22;4482;54.332;10.118;2023-02-01T07:18:59;4.60;99.90
8892;DHT22;4482;54.332;10.118;2023-02-01T07:21:27;4.60;99.90
8892;DHT22;4482;54.332;10.118;2023-02-01T07:23:54;4.60;99.90
8892;DHT22;4482;54.332;10.118;2023-02-01T07:26:21;4.60;99.90
8892;DHT22;4482;54.332;10.118;2023-02-01T07:28:48;4.60;99.90
8892;DHT22;4482;54.332;10.118;2023-02-01T07:31:18;4.70;99.90
8892;DHT22;4482;54.332;10.118;2023-02-01T07:33:47;4.70;99.90
8892;DHT22;4482;54.332;10.118;2023-02-01T07:36:18;4.70;99.90
8892;DHT22;4482;54.332;10.118;2023-02-01T07:38:45;4.70;99.90
8892;DHT22;4482;54.332;10.118;2023-02-01T07:41:13;4.80;99.90
8892;DHT22;4482;54.332;10.118;2023-02-01T07:43:42;4.90;99.90
8892;DHT22;4482;54.332;10.118;2023-02-01T07:46:14;4.90;99.90
8892;DHT22;4482;54.332;10.118;2023-02-01T07:48:44;4.90;99.90
8892;DHT22;4482;54.332;10.118;2023-02-01T07:51:13;4.90;99.90
8892;DHT22;4482;54.332;10.118;2023-02-01T07:53:51;5.00;99.90
8892;DHT22;4482;54.332;10.118;2023-02-01T07:56:21;5.00;99.90
8892;DHT22;4482;54.332;10.118;2023-02-01T07:58:53;5.00;99.90
8892;DHT22;4482;54.332;10.118;2023-02-01T08:01:23;5.10;99.90
8892;DHT22;4482;54.332;10.118;2023-02-01T08:03:53;5.10;99.90
8892;DHT22;4482;54.332;10.118;2023-02-01T08:06:22;5.20;99.90
8892;DHT22;4482;54.332;10.118;2023-02-01T08:08:52;5.20;99.90
8892;DHT22;4482;54.332;10.118;2023-02-01T08:11:20;5.30;99.90
8892;DHT22;4482;54.332;10.118;2023-02-01T08:13:48;5.30;99.90
8892;DHT22;4482;54.332;10.118;2023-02-01T08:16:17;5.40;99.90
8892;DHT22;4482;54.332;10.118;2023-02-01T08:18:47;5.40;99.90
8892;DHT22;4482;54.332;10.118;2023-02-01T08:21:16;5.40;99.90
8892;DHT22;4482;54.332;10.118;2023-02-01T08:23:50;5.40;99.90
8892;DHT22;4482;54.332;10.118;2023-02-01T08:26:18;5.40;99.90
8892;DHT22;4482;54.332;10.118;2023-02-01T08:28:50;5.30;99.90
8892;DHT22;4482;54.332;10.118;2023-02-01T08:31:19;5.30;99.90
8892;DHT22;4482;54.332;10.118;2023-02-01T08:33:50;5.40;99.90
8892;DHT22;4482;54.332;10.118;2023-02-01T08:36:17;5.50;99.90
8892;DHT22;4482;54.332;10.118;2023-02-01T08:38:45;5.60;99.90
8892;DHT22;4482;54.332;10.118;2023-02-01T08:41:14;5.60;99.90
8892;DHT22;4482;54.332;10.118;2023-02-01T08:43:42;5.70;99.90
8892;DHT22;4482;54.332;10.118;2023-02-01T08:46:10;5.70;99.90
8892;DHT22;4482;54.332;10.118;2023-02-01T08:48:37;5.80;99.90
8892;DHT22;4482;54.332;10.118;2023-02-01T08:51:06;5.80;99.90
8892;DHT22;4482;54.332;10.118;2023-02-01T08:53:33;5.80;99.90
8892;DHT22;4482;54.332;10.118;2023-02-01T08:56:01;5.80;99.90
8892;DHT22;4482;54.332;10.118;2023-02-01T08:58:29;5.80;99.90
8892;DHT22;4482;54.332;10.118;2023-02-01T09:00:56;5.80;99.90
8892;DHT22;4482;54.332;10.118;2023-02-01T09:03:25;5.90;99.90
8892;DHT22;4482;54.332;10.118;2023-02-01T09:05:59;5.90;99.90
8892;DHT22;4482;54.332;10.118;2023-02-01T09:08:26;6.00;99.90
8892;DHT22;4482;54.332;10.118;2023-02-01T09:10:53;6.10;99.90
8892;DHT22;4482;54.332;10.118;2023-02-01T09:13:19;6.20;99.90
8892;DHT22;4482;54.332;10.118;2023-02-01T09:15:50;6.30;99.90
8892;DHT22;4482;54.332;10.118;2023-02-01T09:18:19;6.60;99.90
8892;DHT22;4482;54.332;10.118;2023-02-01T09:20:48;6.80;99.90
8892;DHT22;4482;54.332;10.118;2023-02-01T09:23:19;6.70;99.90
8892;DHT22;4482;54.332;10.118;2023-02-01T09:25:47;6.60;99.90
8892;DHT22;4482;54.332;10.118;2023-02-01T09:28:18;6.40;99.90
8892;DHT22;4482;54.332;10.118;2023-02-01T09:30:45;6.40;99.90
8892;DHT22;4482;54.332;10.118;2023-02-01T09:33:13;6.40;99.90
8892;DHT22;4482;54.332;10.118;2023-02-01T09:35:42;6.60;99.90
8892;DHT22;4482;54.332;10.118;2023-02-01T09:38:09;6.60;99.90
8892;DHT22;4482;54.332;10.118;2023-02-01T09:40:39;6.60;99.90
8892;DHT22;4482;54.332;10.118;2023-02-01T09:43:17;6.70;99.90
8892;DHT22;4482;54.332;10.118;2023-02-01T09:45:54;6.80;99.90
8892;DHT22;4482;54.332;10.118;2023-02-01T09:48:27;6.80;99.90
8892;DHT22;4482;54.332;10.118;2023-02-01T09:50:57;6.80;99.90
8892;DHT22;4482;54.332;10.118;2023-02-01T09:53:28;6.70;99.90
8892;DHT22;4482;54.332;10.118;2023-02-01T09:55:59;6.70;99.90
8892;DHT22;4482;54.332;10.118;2023-02-01T09:58:32;6.70;99.90
8892;DHT22;4482;54.332;10.118;2023-02-01T10:01:03;6.80;99.90
8892;DHT22;4482;54.332;10.118;2023-02-01T10:03:36;6.80;99.90
8892;DHT22;4482;54.332;10.118;2023-02-01T10:06:19;6.70;99.90
8892;DHT22;4482;54.332;10.118;2023-02-01T10:09:17;6.50;99.90
8892;DHT22;4482;54.332;10.118;2023-02-01T10:12:00;6.40;99.90
8892;DHT22;4482;54.332;10.118;2023-02-01T10:14:43;6.40;99.90
8892;DHT22;4482;54.332;10.118;2023-02-01T10:17:27;6.40;99.90
8892;DHT22;4482;54.332;10.118;2023-02-01T10:20:07;6.70;99.90
8892;DHT22;4482;54.332;10.118;2023-02-01T10:22:43;6.80;99.90
8892;DHT22;4482;54.332;10.118;2023-02-01T10:25:19;6.70;99.90
8892;DHT22;4482;54.332;10.118;2023-02-01T10:27:50;6.70;99.90
8892;DHT22;4482;54.332;10.118;2023-02-01T10:30:22;6.80;99.90
8892;DHT22;4482;54.332;10.118;2023-02-01T10:32:56;7.00;99.90
8892;DHT22;4482;54.332;10.118;2023-02-01T10:35:28;7.10;99.90
8892;DHT22;4482;54.332;10.118;2023-02-01T10:38:03;7.20;99.90
8892;DHT22;4482;54.332;10.118;2023-02-01T10:40:35;7.30;99.90
8892;DHT22;4482;54.332;10.118;2023-02-01T10:43:03;7.30;99.90
8892;DHT22;4482;54.332;10.118;2023-02-01T10:45:34;7.40;99.90
8892;DHT22;4482;54.332;10.118;2023-02-01T10:48:04;7.50;99.90
8892;DHT22;4482;54.332;10.118;2023-02-01T10:50:37;7.50;99.90
8892;DHT22;4482;54.332;10.118;2023-02-01T10:53:12;7.30;99.90
8892;DHT22;4482;54.332;10.118;2023-02-01T10:55:46;7.30;99.90
8892;DHT22;4482;54.332;10.118;2023-02-01T10:58:18;7.30;99.90
8892;DHT22;4482;54.332;10.118;2023-02-01T11:00:48;7.40;99.90
8892;DHT22;4482;54.332;10.118;2023-02-01T11:03:37;7.30;99.90
8892;DHT22;4482;54.332;10.118;2023-02-01T11:06:19;7.20;99.90
8892;DHT22;4482;54.332;10.118;2023-02-01T11:08:49;7.00;99.90
8892;DHT22;4482;54.332;10.118;2023-02-01T11:11:19;6.90;99.90
8892;DHT22;4482;54.332;10.118;2023-02-01T11:13:53;6.70;99.90
8892;DHT22;4482;54.332;10.118;2023-02-01T11:16:20;6.50;99.90
8892;DHT22;4482;54.332;10.118;2023-02-01T11:18:55;6.40;99.90
8892;DHT22;4482;54.332;10.118;2023-02-01T11:21:23;6.40;99.90
8892;DHT22;4482;54.332;10.118;2023-02-01T11:23:53;6.30;99.90
8892;DHT22;4482;54.332;10.118;2023-02-01T11:26:24;6.30;99.90
8892;DHT22;4482;54.332;10.118;2023-02-01T11:28:56;6.40;99.90
8892;DHT22;4482;54.332;10.118;2023-02-01T11:31:26;6.50;99.90
8892;DHT22;4482;54.332;10.118;2023-02-01T11:33:57;6.60;99.90
8892;DHT22;4482;54.332;10.118;2023-02-01T11:36:30;6.80;99.90
8892;DHT22;4482;54.332;10.118;2023-02-01T11:39:18;6.90;99.90
8892;DHT22;4482;54.332;10.118;2023-02-01T11:42:03;7.00;99.90
8892;DHT22;4482;54.332;10.118;2023-02-01T11:44:33;6.90;99.90
8892;DHT22;4482;54.332;10.118;2023-02-01T11:47:20;6.90;99.90
8892;DHT22;4482;54.332;10.118;2023-02-01T11:49:47;7.00;99.90
8892;DHT22;4482;54.332;10.118;2023-02-01T11:52:30;7.00;99.90
8892;DHT22;4482;54.332;10.118;2023-02-01T11:55:10;7.00;99.90
8892;DHT22;4482;54.332;10.118;2023-02-01T11:57:48;6.90;99.90
8892;DHT22;4482;54.332;10.118;2023-02-01T12:00:36;6.70;99.90
8892;DHT22;4482;54.332;10.118;2023-02-01T12:03:31;6.50;99.90
8892;DHT22;4482;54.332;10.118;2023-02-01T12:06:08;6.30;99.90
8892;DHT22;4482;54.332;10.118;2023-02-01T12:09:00;6.10;99.90
8892;DHT22;4482;54.332;10.118;2023-02-01T12:11:51;5.90;99.90
8892;DHT22;4482;54.332;10.118;2023-02-01T12:14:33;5.60;99.90
8892;DHT22;4482;54.332;10.118;2023-02-01T12:17:21;5.60;99.90
8892;DHT22;4482;54.332;10.118;2023-02-01T12:20:02;5.60;99.90
8892;DHT22;4482;54.332;10.118;2023-02-01T12:22:46;5.60;99.90
8892;DHT22;4482;54.332;10.118;2023-02-01T12:25:41;5.60;99.90
8892;DHT22;4482;54.332;10.118;2023-02-01T12:28:33;5.70;99.90
8892;DHT22;4482;54.332;10.118;2023-02-01T12:31:33;5.70;99.90
8892;DHT22;4482;54.332;10.118;2023-02-01T12:34:23;5.80;99.90
8892;DHT22;4482;54.332;10.118;2023-02-01T12:36:58;5.90;99.90
8892;DHT22;4482;54.332;10.118;2023-02-01T12:39:33;5.90;99.90
8892;DHT22;4482;54.332;10.118;2023-02-01T12:42:09;6.00;99.90
8892;DHT22;4482;54.332;10.118;2023-02-01T12:44:45;6.00;99.90
8892;DHT22;4482;54.332;10.118;2023-02-01T12:47:19;6.00;99.90
8892;DHT22;4482;54.332;10.118;2023-02-01T12:49:55;6.00;99.90
8892;DHT22;4482;54.332;10.118;2023-02-01T12:52:28;6.10;99.90
8892;DHT22;4482;54.332;10.118;2023-02-01T12:55:06;6.10;99.90
8892;DHT22;4482;54.332;10.118;2023-02-01T12:57:40;6.10;99.90
8892;DHT22;4482;54.332;10.118;2023-02-01T13:00:18;6.20;99.90
8892;DHT22;4482;54.332;10.118;2023-02-01T13:02:52;6.30;99.90
8892;DHT22;4482;54.332;10.118;2023-02-01T13:05:31;6.40;99.90
8892;DHT22;4482;54.332;10.118;2023-02-01T13:08:06;6.50;99.90
8892;DHT22;4482;54.332;10.118;2023-02-01T13:10:36;6.60;99.90
8892;DHT22;4482;54.332;10.118;2023-02-01T13:13:15;6.70;99.90
8892;DHT22;4482;54.332;10.118;2023-02-01T13:15:47;6.90;99.90
8892;DHT22;4482;54.332;10.118;2023-02-01T13:18:19;6.90;99.90
8892;DHT22;4482;54.332;10.118;2023-02-01T13:20:50;6.90;99.90
8892;DHT22;4482;54.332;10.118;2023-02-01T13:23:25;6.70;99.90
8892;DHT22;4482;54.332;10.118;2023-02-01T13:25:53;6.40;99.90
8892;DHT22;4482;54.332;10.118;2023-02-01T13:28:26;6.10;99.90
8892;DHT22;4482;54.332;10.118;2023-02-01T13:31:14;5.70;99.90
8892;DHT22;4482;54.332;10.118;2023-02-01T13:33:56;5.40;99.90
8892;DHT22;4482;54.332;10.118;2023-02-01T13:36:53;5.30;99.90
8892;DHT22;4482;54.332;10.118;2023-02-01T13:39:45;5.40;99.90
8892;DHT22;4482;54.332;10.118;2023-02-01T13:42:18;5.40;99.90
8892;DHT22;4482;54.332;10.118;2023-02-01T13:44:49;5.40;99.90
8892;DHT22;4482;54.332;10.118;2023-02-01T13:47:24;5.40;99.90
8892;DHT22;4482;54.332;10.118;2023-02-01T13:49:52;5.50;99.90
8892;DHT22;4482;54.332;10.118;2023-02-01T13:52:42;5.50;99.90
8892;DHT22;4482;54.332;10.118;2023-02-01T13:55:27;5.50;99.90
8892;DHT22;4482;54.332;10.118;2023-02-01T13:58:06;5.50;99.90
8892;DHT22;4482;54.332;10.118;2023-02-01T14:00:40;5.60;99.90
8892;DHT22;4482;54.332;10.118;2023-02-01T14:03:19;5.60;99.90
8892;DHT22;4482;54.332;10.118;2023-02-01T14:06:32;5.60;99.90
8892;DHT22;4482;54.332;10.118;2023-02-01T14:09:31;5.70;99.90
8892;DHT22;4482;54.332;10.118;2023-02-01T14:15:24;5.90;99.90
8892;DHT22;4482;54.332;10.118;2023-02-01T14:17:53;5.90;99.90
8892;DHT22;4482;54.332;10.118;2023-02-01T14:20:45;5.90;99.90
8892;DHT22;4482;54.332;10.118;2023-02-01T14:23:23;5.90;99.90
8892;DHT22;4482;54.332;10.118;2023-02-01T14:26:09;5.90;99.90
8892;DHT22;4482;54.332;10.118;2023-02-01T14:28:40;6.00;99.90
8892;DHT22;4482;54.332;10.118;2023-02-01T14:31:34;6.10;99.90
8892;DHT22;4482;54.332;10.118;2023-02-01T14:34:10;6.10;99.90
8892;DHT22;4482;54.332;10.118;2023-02-01T14:36:43;6.20;99.90
8892;DHT22;4482;54.332;10.118;2023-02-01T14:39:26;6.20;99.90
8892;DHT22;4482;54.332;10.118;2023-02-01T14:42:00;6.20;99.90
8892;DHT22;4482;54.332;10.118;2023-02-01T14:44:31;6.20;99.90
8892;DHT22;4482;54.332;10.118;2023-02-01T14:50:00;6.10;99.90
8892;DHT22;4482;54.332;10.118;2023-02-01T14:52:33;6.10;99.90
8892;DHT22;4482;54.332;10.118;2023-02-01T14:55:06;5.90;99.90
8892;DHT22;4482;54.332;10.118;2023-02-01T14:57:39;5.90;99.90
8892;DHT22;4482;54.332;10.118;2023-02-01T15:00:16;5.90;99.90
8892;DHT22;4482;54.332;10.118;2023-02-01T15:02:46;5.90;99.90
8892;DHT22;4482;54.332;10.118;2023-02-01T15:05:27;5.90;99.90
8892;DHT22;4482;54.332;10.118;2023-02-01T15:07:58;5.90;99.90
8892;DHT22;4482;54.332;10.118;2023-02-01T15:10:26;5.80;99.90
8892;DHT22;4482;54.332;10.118;2023-02-01T15:12:59;5.90;99.90
8892;DHT22;4482;54.332;10.118;2023-02-01T15:15:32;5.90;99.90
8892;DHT22;4482;54.332;10.118;2023-02-01T15:18:18;5.90;99.90
8892;DHT22;4482;54.332;10.118;2023-02-01T15:20:57;5.90;99.90
8892;DHT22;4482;54.332;10.118;2023-02-01T15:23:26;5.90;99.90
8892;DHT22;4482;54.332;10.118;2023-02-01T15:25:53;5.90;99.90
8892;DHT22;4482;54.332;10.118;2023-02-01T15:28:22;5.90;99.90
8892;DHT22;4482;54.332;10.118;2023-02-01T15:30:54;5.90;99.90
8892;DHT22;4482;54.332;10.118;2023-02-01T15:33:24;5.90;99.90
8892;DHT22;4482;54.332;10.118;2023-02-01T15:36:06;5.90;99.90
8892;DHT22;4482;54.332;10.118;2023-02-01T15:38:39;5.90;99.90
8892;DHT22;4482;54.332;10.118;2023-02-01T15:41:09;5.90;99.90
8892;DHT22;4482;54.332;10.118;2023-02-01T15:43:40;5.90;99.90
8892;DHT22;4482;54.332;10.118;2023-02-01T15:46:13;5.90;99.90
8892;DHT22;4482;54.332;10.118;2023-02-01T15:48:46;5.80;99.90
8892;DHT22;4482;54.332;10.118;2023-02-01T15:51:18;5.90;99.90
8892;DHT22;4482;54.332;10.118;2023-02-01T15:53:51;5.80;99.90
8892;DHT22;4482;54.332;10.118;2023-02-01T15:56:29;5.80;99.90
8892;DHT22;4482;54.332;10.118;2023-02-01T15:58:58;5.80;99.90
8892;DHT22;4482;54.332;10.118;2023-02-01T16:01:26;5.80;99.90
8892;DHT22;4482;54.332;10.118;2023-02-01T16:04:14;5.80;99.90
8892;DHT22;4482;54.332;10.118;2023-02-01T16:06:48;5.90;99.90
8892;DHT22;4482;54.332;10.118;2023-02-01T16:09:16;5.90;99.90
8892;DHT22;4482;54.332;10.118;2023-02-01T16:11:55;6.00;99.90
8892;DHT22;4482;54.332;10.118;2023-02-01T16:14:23;6.00;99.90
8892;DHT22;4482;54.332;10.118;2023-02-01T16:16:50;6.00;99.90
8892;DHT22;4482;54.332;10.118;2023-02-01T16:19:19;6.10;99.90
8892;DHT22;4482;54.332;10.118;2023-02-01T16:21:46;6.10;99.90
8892;DHT22;4482;54.332;10.118;2023-02-01T16:24:17;6.10;99.90
8892;DHT22;4482;54.332;10.118;2023-02-01T16:26:54;6.00;99.90
8892;DHT22;4482;54.332;10.118;2023-02-01T16:29:21;5.80;99.90
8892;DHT22;4482;54.332;10.118;2023-02-01T16:31:51;5.60;99.90
8892;DHT22;4482;54.332;10.118;2023-02-01T16:34:19;5.50;99.90
8892;DHT22;4482;54.332;10.118;2023-02-01T16:36:50;5.50;99.90
8892;DHT22;4482;54.332;10.118;2023-02-01T16:39:20;5.40;99.90
8892;DHT22;4482;54.332;10.118;2023-02-01T16:41:50;5.40;99.90
8892;DHT22;4482;54.332;10.118;2023-02-01T16:44:19;5.40;99.90
8892;DHT22;4482;54.332;10.118;2023-02-01T16:46:51;5.40;99.90
8892;DHT22;4482;54.332;10.118;2023-02-01T16:49:20;5.40;99.90